sensor_id;sensor_type;location;lat;lon;timestamp;pressure;altitude;pressure_sealevel;temperature;humidity
29417;BME280;28421;51.030;4.006;2023-10-08T00:01:42;102352.47;;;15.16;68.71
29417;BME280;28421;51.030;4.006;2023-10-08T00:04:08;102345.53;;;15.14;68.68
29417;BME280;28421;51.030;4.006;2023-10-08T00:06:36;102358.22;;;15.13;69.02
29417;BME280;28421;51.030;4.006;2023-10-08T00:09:03;102356.16;;;14.99;69.07
29417;BME280;28421;51.030;4.006;2023-10-08T00:11:35;102332.75;;;14.90;69.22
29417;BME280;28421;51.030;4.006;2023-10-08T00:14:02;102357.34;;;15.05;69.66
29417;BME280;28421;51.030;4.006;2023-10-08T00:16:30;102373.09;;;15.01;69.77
29417;BME280;28421;51.030;4.006;2023-10-08T00:18:59;102376.13;;;14.98;69.84
29417;BME280;28421;51.030;4.006;2023-10-08T00:21:32;102393.41;;;15.05;70.05
29417;BME280;28421;51.030;4.006;2023-10-08T00:23:58;102375.78;;;14.93;71.03
29417;BME280;28421;51.030;4.006;2023-10-08T00:26:24;102351.16;;;14.78;70.82
29417;BME280;28421;51.030;4.006;2023-10-08T00:28:54;102372.66;;;14.80;70.92
29417;BME280;28421;51.030;4.006;2023-10-08T00:31:21;102388.97;;;14.96;71.11
29417;BME280;28421;51.030;4.006;2023-10-08T00:33:49;102397.63;;;15.00;71.83
29417;BME280;28421;51.030;4.006;2023-10-08T00:36:15;102420.66;;;15.04;72.13
29417;BME280;28421;51.030;4.006;2023-10-08T00:38:48;102402.34;;;14.89;71.93
29417;BME280;28421;51.030;4.006;2023-10-08T00:41:16;102402.47;;;14.88;71.50
29417;BME280;28421;51.030;4.006;2023-10-08T00:43:42;102402.78;;;14.77;71.87
29417;BME280;28421;51.030;4.006;2023-10-08T00:46:10;102411.25;;;14.82;72.54
29417;BME280;28421;51.030;4.006;2023-10-08T00:48:58;102428.31;;;14.74;73.41
29417;BME280;28421;51.030;4.006;2023-10-08T00:51:28;102375.16;;;14.47;73.19
29417;BME280;28421;51.030;4.006;2023-10-08T00:54:06;102428.00;;;14.77;73.61
29417;BME280;28421;51.030;4.006;2023-10-08T00:56:35;102394.66;;;14.51;73.61
29417;BME280;28421;51.030;4.006;2023-10-08T00:59:23;102425.78;;;14.73;73.70
29417;BME280;28421;51.030;4.006;2023-10-08T01:01:52;102374.13;;;14.40;74.16
29417;BME280;28421;51.030;4.006;2023-10-08T01:04:24;102424.00;;;14.63;74.25
29417;BME280;28421;51.030;4.006;2023-10-08T01:06:54;102408.09;;;14.60;74.27
29417;BME280;28421;51.030;4.006;2023-10-08T01:09:22;102391.13;;;14.50;74.73
29417;BME280;28421;51.030;4.006;2023-10-08T01:12:15;102398.63;;;14.56;74.96
29417;BME280;28421;51.030;4.006;2023-10-08T01:14:43;102364.63;;;14.36;74.99
29417;BME280;28421;51.030;4.006;2023-10-08T01:17:13;102395.06;;;14.56;75.09
29417;BME280;28421;51.030;4.006;2023-10-08T01:19:42;102379.00;;;14.36;75.51
29417;BME280;28421;51.030;4.006;2023-10-08T01:22:13;102408.19;;;14.51;75.46
29417;BME280;28421;51.030;4.006;2023-10-08T01:24:44;102364.41;;;14.29;75.61
29417;BME280;28421;51.030;4.006;2023-10-08T01:27:15;102378.47;;;14.33;75.86
29417;BME280;28421;51.030;4.006;2023-10-08T01:29:46;102377.25;;;14.27;76.26
29417;BME280;28421;51.030;4.006;2023-10-08T01:32:12;102388.81;;;14.37;76.35
29417;BME280;28421;51.030;4.006;2023-10-08T01:34:42;102369.56;;;14.14;76.14
29417;BME280;28421;51.030;4.006;2023-10-08T01:37:19;102382.97;;;14.24;76.60
29417;BME280;28421;51.030;4.006;2023-10-08T01:39:45;102400.34;;;14.39;76.85
29417;BME280;28421;51.030;4.006;2023-10-08T01:42:14;102365.13;;;14.13;77.05
29417;BME280;28421;51.030;4.006;2023-10-08T01:44:47;102361.28;;;14.16;76.89
29417;BME280;28421;51.030;4.006;2023-10-08T01:47:14;102373.00;;;14.25;77.18
29417;BME280;28421;51.030;4.006;2023-10-08T01:49:42;102356.88;;;14.15;77.26
29417;BME280;28421;51.030;4.006;2023-10-08T01:52:10;102331.25;;;14.01;78.02
29417;BME280;28421;51.030;4.006;2023-10-08T01:54:55;102365.13;;;14.13;78.53
29417;BME280;28421;51.030;4.006;2023-10-08T01:57:20;102370.25;;;14.16;78.63
29417;BME280;28421;51.030;4.006;2023-10-08T01:59:46;102344.03;;;13.91;78.43
29417;BME280;28421;51.030;4.006;2023-10-08T02:02:11;102361.34;;;13.98;79.10
29417;BME280;28421;51.030;4.006;2023-10-08T02:04:43;102360.69;;;14.04;79.14
29417;BME280;28421;51.030;4.006;2023-10-08T02:07:09;102386.41;;;14.08;79.16
29417;BME280;28421;51.030;4.006;2023-10-08T02:09:41;102369.88;;;14.11;79.53
29417;BME280;28421;51.030;4.006;2023-10-08T02:12:07;102346.31;;;14.04;79.75
29417;BME280;28421;51.030;4.006;2023-10-08T02:14:33;102335.72;;;14.10;79.37
29417;BME280;28421;51.030;4.006;2023-10-08T02:17:01;102342.47;;;14.06;79.53
29417;BME280;28421;51.030;4.006;2023-10-08T02:19:32;102373.53;;;14.28;79.66
29417;BME280;28421;51.030;4.006;2023-10-08T02:21:58;102347.16;;;14.04;80.27
29417;BME280;28421;51.030;4.006;2023-10-08T02:24:24;102341.13;;;14.10;80.12
29417;BME280;28421;51.030;4.006;2023-10-08T02:26:54;102367.06;;;14.21;80.72
29417;BME280;28421;51.030;4.006;2023-10-08T02:29:23;102332.47;;;14.07;80.39
29417;BME280;28421;51.030;4.006;2023-10-08T02:31:50;102331.00;;;14.12;80.03
29417;BME280;28421;51.030;4.006;2023-10-08T02:34:15;102340.16;;;14.20;80.30
29417;BME280;28421;51.030;4.006;2023-10-08T02:36:41;102355.63;;;14.09;81.53
29417;BME280;28421;51.030;4.006;2023-10-08T02:39:07;102345.09;;;13.98;81.97
29417;BME280;28421;51.030;4.006;2023-10-08T02:41:42;102360.38;;;14.07;82.70
29417;BME280;28421;51.030;4.006;2023-10-08T02:44:10;102378.03;;;14.20;82.70
29417;BME280;28421;51.030;4.006;2023-10-08T02:46:43;102358.25;;;14.19;82.22
29417;BME280;28421;51.030;4.006;2023-10-08T02:49:16;102372.22;;;14.32;81.51
29417;BME280;28421;51.030;4.006;2023-10-08T02:51:53;102374.69;;;14.26;82.46
29417;BME280;28421;51.030;4.006;2023-10-08T02:54:20;102374.38;;;14.29;82.00
29417;BME280;28421;51.030;4.006;2023-10-08T02:56:50;102358.47;;;14.26;81.76
29417;BME280;28421;51.030;4.006;2023-10-08T02:59:29;102411.31;;;14.56;82.15
29417;BME280;28421;51.030;4.006;2023-10-08T03:02:05;102400.66;;;14.62;81.85
29417;BME280;28421;51.030;4.006;2023-10-08T03:04:40;102381.13;;;14.51;81.27
29417;BME280;28421;51.030;4.006;2023-10-08T03:07:09;102365.91;;;14.50;81.14
29417;BME280;28421;51.030;4.006;2023-10-08T03:09:37;102393.78;;;14.76;80.76
29417;BME280;28421;51.030;4.006;2023-10-08T03:12:08;102359.25;;;14.44;82.16
29417;BME280;28421;51.030;4.006;2023-10-08T03:14:35;102369.38;;;14.42;82.99
29417;BME280;28421;51.030;4.006;2023-10-08T03:17:14;102365.91;;;14.50;82.34
29417;BME280;28421;51.030;4.006;2023-10-08T03:19:46;102367.13;;;14.55;81.57
29417;BME280;28421;51.030;4.006;2023-10-08T03:22:11;102362.03;;;14.52;81.92
29417;BME280;28421;51.030;4.006;2023-10-08T03:24:37;102372.22;;;14.58;81.96
29417;BME280;28421;51.030;4.006;2023-10-08T03:27:05;102367.91;;;14.48;83.10
29417;BME280;28421;51.030;4.006;2023-10-08T03:29:46;102368.91;;;14.47;82.85
29417;BME280;28421;51.030;4.006;2023-10-08T03:32:14;102366.94;;;14.49;83.28
29417;BME280;28421;51.030;4.006;2023-10-08T03:34:46;102390.53;;;14.64;82.97
29417;BME280;28421;51.030;4.006;2023-10-08T03:37:18;102391.38;;;14.65;82.76
29417;BME280;28421;51.030;4.006;2023-10-08T03:39:48;102386.28;;;14.62;82.77
29417;BME280;28421;51.030;4.006;2023-10-08T03:42:23;102408.19;;;14.77;82.84
29417;BME280;28421;51.030;4.006;2023-10-08T03:44:50;102409.13;;;14.67;82.57
29417;BME280;28421;51.030;4.006;2023-10-08T03:47:22;102364.94;;;14.33;83.06
29417;BME280;28421;51.030;4.006;2023-10-08T03:49:52;102415.53;;;14.58;83.11
29417;BME280;28421;51.030;4.006;2023-10-08T03:52:19;102388.63;;;14.39;83.63
29417;BME280;28421;51.030;4.006;2023-10-08T03:54:51;102383.88;;;14.33;83.21
29417;BME280;28421;51.030;4.006;2023-10-08T03:57:36;102375.88;;;14.23;84.09
29417;BME280;28421;51.030;4.006;2023-10-08T04:00:09;102390.63;;;14.29;84.67
29417;BME280;28421;51.030;4.006;2023-10-08T04:02:39;102391.09;;;14.24;84.60
29417;BME280;28421;51.030;4.006;2023-10-08T04:05:06;102371.13;;;13.99;84.58
29417;BME280;28421;51.030;4.006;2023-10-08T04:07:54;102415.44;;;14.24;84.71
29417;BME280;28421;51.030;4.006;2023-10-08T04:10:39;102418.31;;;14.23;84.91
29417;BME280;28421;51.030;4.006;2023-10-08T04:13:07;102410.97;;;14.15;84.83
29417;BME280;28421;51.030;4.006;2023-10-08T04:15:37;102416.69;;;14.12;84.95
29417;BME280;28421;51.030;4.006;2023-10-08T04:18:10;102419.16;;;14.05;84.78
29417;BME280;28421;51.030;4.006;2023-10-08T04:20:36;102428.28;;;14.04;85.03
29417;BME280;28421;51.030;4.006;2023-10-08T04:23:17;102415.00;;;13.93;85.94
29417;BME280;28421;51.030;4.006;2023-10-08T04:25:48;102421.06;;;13.87;86.15
29417;BME280;28421;51.030;4.006;2023-10-08T04:28:20;102401.97;;;13.71;86.34
29417;BME280;28421;51.030;4.006;2023-10-08T04:30:47;102378.44;;;13.45;86.91
29417;BME280;28421;51.030;4.006;2023-10-08T04:33:18;102390.84;;;13.56;87.16
29417;BME280;28421;51.030;4.006;2023-10-08T04:35:45;102394.09;;;13.59;87.19
29417;BME280;28421;51.030;4.006;2023-10-08T04:38:20;102398.09;;;13.55;87.71
29417;BME280;28421;51.030;4.006;2023-10-08T04:40:47;102429.31;;;13.67;87.66
29417;BME280;28421;51.030;4.006;2023-10-08T04:43:17;102374.78;;;13.36;87.54
29417;BME280;28421;51.030;4.006;2023-10-08T04:45:54;102393.03;;;13.52;87.77
29417;BME280;28421;51.030;4.006;2023-10-08T04:48:22;102418.66;;;13.66;87.81
29417;BME280;28421;51.030;4.006;2023-10-08T04:50:49;102437.59;;;13.66;88.20
29417;BME280;28421;51.030;4.006;2023-10-08T04:53:33;102415.16;;;13.56;88.39
29417;BME280;28421;51.030;4.006;2023-10-08T04:56:04;102442.53;;;13.71;88.73
29417;BME280;28421;51.030;4.006;2023-10-08T04:58:44;102424.00;;;13.58;89.07
29417;BME280;28421;51.030;4.006;2023-10-08T05:01:14;102445.69;;;13.66;89.25
29417;BME280;28421;51.030;4.006;2023-10-08T05:03:55;102444.53;;;13.68;90.02
29417;BME280;28421;51.030;4.006;2023-10-08T05:06:34;102429.69;;;13.55;89.90
29417;BME280;28421;51.030;4.006;2023-10-08T05:09:03;102390.16;;;13.36;89.96
29417;BME280;28421;51.030;4.006;2023-10-08T05:11:44;102365.22;;;13.14;90.92
29417;BME280;28421;51.030;4.006;2023-10-08T05:14:21;102416.81;;;13.49;91.03
29417;BME280;28421;51.030;4.006;2023-10-08T05:17:08;102422.97;;;13.59;90.91
29417;BME280;28421;51.030;4.006;2023-10-08T05:19:48;102412.25;;;13.49;90.69
29417;BME280;28421;51.030;4.006;2023-10-08T05:22:34;102412.47;;;13.56;90.71
29417;BME280;28421;51.030;4.006;2023-10-08T05:25:09;102428.47;;;13.67;90.72
29417;BME280;28421;51.030;4.006;2023-10-08T05:27:45;102379.09;;;13.29;90.88
29417;BME280;28421;51.030;4.006;2023-10-08T05:30:24;102400.31;;;13.24;92.77
29417;BME280;28421;51.030;4.006;2023-10-08T05:33:18;102409.28;;;13.25;92.77
29417;BME280;28421;51.030;4.006;2023-10-08T05:35:51;102457.88;;;13.52;92.54
29417;BME280;28421;51.030;4.006;2023-10-08T05:38:27;102402.75;;;13.17;92.28
29417;BME280;28421;51.030;4.006;2023-10-08T05:40:57;102396.78;;;13.14;92.49
29417;BME280;28421;51.030;4.006;2023-10-08T05:43:37;102434.38;;;13.35;92.76
29417;BME280;28421;51.030;4.006;2023-10-08T05:49:03;102423.66;;;13.43;92.66
29417;BME280;28421;51.030;4.006;2023-10-08T05:51:42;102457.91;;;13.70;92.43
29417;BME280;28421;51.030;4.006;2023-10-08T05:54:17;102437.13;;;13.53;91.97
29417;BME280;28421;51.030;4.006;2023-10-08T05:57:02;102452.56;;;13.60;92.48
29417;BME280;28421;51.030;4.006;2023-10-08T05:59:50;102460.13;;;13.57;92.42
29417;BME280;28421;51.030;4.006;2023-10-08T06:02:29;102458.28;;;13.57;92.22
29417;BME280;28421;51.030;4.006;2023-10-08T06:05:05;102464.97;;;13.53;92.58
29417;BME280;28421;51.030;4.006;2023-10-08T06:07:41;102473.00;;;13.45;93.39
29417;BME280;28421;51.030;4.006;2023-10-08T06:10:15;102460.03;;;13.49;93.34
29417;BME280;28421;51.030;4.006;2023-10-08T06:13:06;102454.78;;;13.47;93.41
29417;BME280;28421;51.030;4.006;2023-10-08T06:15:47;102469.53;;;13.53;93.59
29417;BME280;28421;51.030;4.006;2023-10-08T06:18:15;102464.53;;;13.58;93.45
29417;BME280;28421;51.030;4.006;2023-10-08T06:20:41;102443.81;;;13.49;93.46
29417;BME280;28421;51.030;4.006;2023-10-08T06:23:12;102465.06;;;13.61;93.69
29417;BME280;28421;51.030;4.006;2023-10-08T06:25:39;102449.88;;;13.60;93.24
29417;BME280;28421;51.030;4.006;2023-10-08T06:28:15;102471.59;;;13.86;92.58
29417;BME280;28421;51.030;4.006;2023-10-08T06:30:47;102464.41;;;13.77;92.19
29417;BME280;28421;51.030;4.006;2023-10-08T06:33:14;102455.03;;;13.72;92.22
29417;BME280;28421;51.030;4.006;2023-10-08T06:35:40;102483.06;;;13.88;92.26
29417;BME280;28421;51.030;4.006;2023-10-08T06:38:10;102485.41;;;13.83;92.45
29417;BME280;28421;51.030;4.006;2023-10-08T06:40:36;102484.16;;;13.78;92.89
29417;BME280;28421;51.030;4.006;2023-10-08T06:43:03;102478.31;;;13.82;92.76
29417;BME280;28421;51.030;4.006;2023-10-08T06:45:44;102483.41;;;14.03;92.86
29417;BME280;28421;51.030;4.006;2023-10-08T06:48:10;102480.59;;;14.13;92.22
29417;BME280;28421;51.030;4.006;2023-10-08T06:50:44;102451.97;;;14.02;92.27
29417;BME280;28421;51.030;4.006;2023-10-08T06:53:10;102463.84;;;14.09;92.30
29417;BME280;28421;51.030;4.006;2023-10-08T06:55:40;102458.72;;;14.24;92.18
29417;BME280;28421;51.030;4.006;2023-10-08T06:58:05;102458.09;;;14.30;91.77
29417;BME280;28421;51.030;4.006;2023-10-08T07:00:33;102487.94;;;14.56;91.39
29417;BME280;28421;51.030;4.006;2023-10-08T07:03:04;102485.28;;;14.64;90.76
29417;BME280;28421;51.030;4.006;2023-10-08T07:05:33;102448.31;;;14.55;90.68
29417;BME280;28421;51.030;4.006;2023-10-08T07:08:05;102485.22;;;14.82;90.05
29417;BME280;28421;51.030;4.006;2023-10-08T07:10:35;102484.97;;;14.94;89.85
29417;BME280;28421;51.030;4.006;2023-10-08T07:13:01;102460.59;;;14.94;89.51
29417;BME280;28421;51.030;4.006;2023-10-08T07:15:29;102495.78;;;15.28;88.58
29417;BME280;28421;51.030;4.006;2023-10-08T07:17:56;102484.09;;;15.27;87.99
29417;BME280;28421;51.030;4.006;2023-10-08T07:20:21;102479.84;;;15.25;87.49
29417;BME280;28421;51.030;4.006;2023-10-08T07:22:48;102474.50;;;15.41;87.66
29417;BME280;28421;51.030;4.006;2023-10-08T07:25:22;102460.97;;;15.49;87.07
29417;BME280;28421;51.030;4.006;2023-10-08T07:27:48;102460.47;;;15.54;86.57
29417;BME280;28421;51.030;4.006;2023-10-08T07:30:14;102444.19;;;15.54;86.18
29417;BME280;28421;51.030;4.006;2023-10-08T07:32:52;102456.31;;;15.68;85.21
29417;BME280;28421;51.030;4.006;2023-10-08T07:35:21;102482.44;;;15.85;84.87
29417;BME280;28421;51.030;4.006;2023-10-08T07:37:46;102478.38;;;15.89;84.14
29417;BME280;28421;51.030;4.006;2023-10-08T07:40:16;102480.06;;;15.90;83.20
29417;BME280;28421;51.030;4.006;2023-10-08T07:42:42;102477.03;;;15.93;82.98
29417;BME280;28421;51.030;4.006;2023-10-08T07:45:09;102466.50;;;15.90;82.92
29417;BME280;28421;51.030;4.006;2023-10-08T07:47:35;102495.16;;;16.01;82.78
29417;BME280;28421;51.030;4.006;2023-10-08T07:50:00;102464.81;;;15.97;82.77
29417;BME280;28421;51.030;4.006;2023-10-08T07:52:26;102478.88;;;16.09;82.69
29417;BME280;28421;51.030;4.006;2023-10-08T07:54:52;102482.97;;;16.13;82.30
29417;BME280;28421;51.030;4.006;2023-10-08T07:57:18;102484.84;;;16.21;82.41
29417;BME280;28421;51.030;4.006;2023-10-08T07:59:51;102477.72;;;16.20;81.96
29417;BME280;28421;51.030;4.006;2023-10-08T08:02:20;102513.19;;;16.43;82.15
29417;BME280;28421;51.030;4.006;2023-10-08T08:04:52;102491.94;;;16.38;82.22
29417;BME280;28421;51.030;4.006;2023-10-08T08:07:21;102490.59;;;16.34;82.22
29417;BME280;28421;51.030;4.006;2023-10-08T08:09:52;102484.31;;;16.41;82.42
29417;BME280;28421;51.030;4.006;2023-10-08T08:12:24;102479.06;;;16.48;82.21
29417;BME280;28421;51.030;4.006;2023-10-08T08:14:54;102462.44;;;16.51;81.60
29417;BME280;28421;51.030;4.006;2023-10-08T08:17:22;102487.84;;;16.83;80.81
29417;BME280;28421;51.030;4.006;2023-10-08T08:19:49;102462.41;;;16.84;80.51
29417;BME280;28421;51.030;4.006;2023-10-08T08:22:16;102497.56;;;17.25;79.48
29417;BME280;28421;51.030;4.006;2023-10-08T08:24:52;102481.25;;;17.25;78.97
29417;BME280;28421;51.030;4.006;2023-10-08T08:27:31;102486.84;;;17.31;78.42
29417;BME280;28421;51.030;4.006;2023-10-08T08:30:00;102499.31;;;17.57;78.33
29417;BME280;28421;51.030;4.006;2023-10-08T08:32:41;102467.22;;;17.13;78.15
29417;BME280;28421;51.030;4.006;2023-10-08T08:35:13;102521.22;;;17.63;77.80
29417;BME280;28421;51.030;4.006;2023-10-08T08:37:42;102489.59;;;17.62;78.70
29417;BME280;28421;51.030;4.006;2023-10-08T08:40:09;102514.75;;;17.96;78.44
29417;BME280;28421;51.030;4.006;2023-10-08T08:42:35;102490.59;;;17.61;78.30
29417;BME280;28421;51.030;4.006;2023-10-08T08:45:04;102479.03;;;17.68;78.61
29417;BME280;28421;51.030;4.006;2023-10-08T08:47:35;102520.72;;;17.91;78.95
29417;BME280;28421;51.030;4.006;2023-10-08T08:50:02;102501.63;;;17.76;78.94
29417;BME280;28421;51.030;4.006;2023-10-08T08:52:38;102491.03;;;17.50;80.15
29417;BME280;28421;51.030;4.006;2023-10-08T08:55:05;102508.41;;;17.72;80.16
29417;BME280;28421;51.030;4.006;2023-10-08T08:57:39;102497.53;;;17.72;79.77
29417;BME280;28421;51.030;4.006;2023-10-08T09:00:05;102503.44;;;17.84;79.94
29417;BME280;28421;51.030;4.006;2023-10-08T09:02:38;102492.16;;;17.56;81.52
29417;BME280;28421;51.030;4.006;2023-10-08T09:05:05;102516.31;;;17.90;81.09
29417;BME280;28421;51.030;4.006;2023-10-08T09:07:56;102495.94;;;17.86;81.25
29417;BME280;28421;51.030;4.006;2023-10-08T09:10:24;102513.19;;;18.01;80.63
29417;BME280;28421;51.030;4.006;2023-10-08T09:12:54;102506.16;;;17.84;81.05
29417;BME280;28421;51.030;4.006;2023-10-08T09:15:26;102502.16;;;17.95;81.00
29417;BME280;28421;51.030;4.006;2023-10-08T09:17:53;102494.44;;;18.06;81.85
29417;BME280;28421;51.030;4.006;2023-10-08T09:20:20;102495.69;;;18.19;82.18
29417;BME280;28421;51.030;4.006;2023-10-08T09:22:47;102488.00;;;18.22;81.98
29417;BME280;28421;51.030;4.006;2023-10-08T09:25:33;102514.13;;;18.54;81.52
29417;BME280;28421;51.030;4.006;2023-10-08T09:27:59;102487.19;;;18.36;80.91
29417;BME280;28421;51.030;4.006;2023-10-08T09:30:25;102506.66;;;18.33;81.41
29417;BME280;28421;51.030;4.006;2023-10-08T09:32:51;102502.47;;;18.60;80.93
29417;BME280;28421;51.030;4.006;2023-10-08T09:35:17;102522.38;;;18.84;80.45
29417;BME280;28421;51.030;4.006;2023-10-08T09:37:44;102522.97;;;19.09;79.71
29417;BME280;28421;51.030;4.006;2023-10-08T09:40:11;102519.47;;;19.30;79.14
29417;BME280;28421;51.030;4.006;2023-10-08T09:42:37;102512.78;;;19.47;79.12
29417;BME280;28421;51.030;4.006;2023-10-08T09:45:05;102489.66;;;19.43;78.23
29417;BME280;28421;51.030;4.006;2023-10-08T09:47:36;102523.97;;;19.67;77.74
29417;BME280;28421;51.030;4.006;2023-10-08T09:50:05;102487.06;;;19.56;78.13
29417;BME280;28421;51.030;4.006;2023-10-08T09:52:38;102513.00;;;19.82;77.45
29417;BME280;28421;51.030;4.006;2023-10-08T09:55:09;102488.25;;;19.83;77.24
29417;BME280;28421;51.030;4.006;2023-10-08T09:57:37;102497.22;;;19.99;77.04
29417;BME280;28421;51.030;4.006;2023-10-08T10:00:07;102517.53;;;20.32;78.99
29417;BME280;28421;51.030;4.006;2023-10-08T10:02:43;102512.31;;;20.38;76.65
29417;BME280;28421;51.030;4.006;2023-10-08T10:05:12;102519.88;;;20.57;76.08
29417;BME280;28421;51.030;4.006;2023-10-08T10:07:37;102526.47;;;20.69;74.87
29417;BME280;28421;51.030;4.006;2023-10-08T10:10:38;102521.16;;;20.61;75.13
29417;BME280;28421;51.030;4.006;2023-10-08T10:13:05;102523.47;;;20.57;74.79
29417;BME280;28421;51.030;4.006;2023-10-08T10:15:33;102539.25;;;20.41;75.11
29417;BME280;28421;51.030;4.006;2023-10-08T10:18:09;102520.97;;;20.63;74.94
29417;BME280;28421;51.030;4.006;2023-10-08T10:21:00;102530.50;;;20.73;74.65
29417;BME280;28421;51.030;4.006;2023-10-08T10:23:41;102533.03;;;20.75;73.89
29417;BME280;28421;51.030;4.006;2023-10-08T10:31:33;102501.63;;;20.92;74.07
29417;BME280;28421;51.030;4.006;2023-10-08T10:34:05;102516.19;;;20.99;73.13
29417;BME280;28421;51.030;4.006;2023-10-08T10:36:34;102515.56;;;21.04;73.82
29417;BME280;28421;51.030;4.006;2023-10-08T10:39:00;102519.22;;;21.11;72.97
29417;BME280;28421;51.030;4.006;2023-10-08T10:41:25;102512.25;;;21.08;73.36
29417;BME280;28421;51.030;4.006;2023-10-08T10:43:53;102500.91;;;21.12;73.00
29417;BME280;28421;51.030;4.006;2023-10-08T10:46:18;102517.25;;;21.33;71.57
29417;BME280;28421;51.030;4.006;2023-10-08T10:49:10;102524.84;;;21.38;72.59
29417;BME280;28421;51.030;4.006;2023-10-08T10:51:49;102529.78;;;21.62;72.40
29417;BME280;28421;51.030;4.006;2023-10-08T10:54:18;102529.06;;;21.40;70.79
29417;BME280;28421;51.030;4.006;2023-10-08T10:56:52;102528.91;;;21.48;71.51
29417;BME280;28421;51.030;4.006;2023-10-08T10:59:31;102518.63;;;21.64;71.12
29417;BME280;28421;51.030;4.006;2023-10-08T11:02:03;102503.91;;;21.71;70.26
29417;BME280;28421;51.030;4.006;2023-10-08T11:04:47;102490.00;;;21.73;70.06
29417;BME280;28421;51.030;4.006;2023-10-08T11:07:21;102514.09;;;21.97;69.69
29417;BME280;28421;51.030;4.006;2023-10-08T11:09:49;102489.63;;;21.82;68.95
29417;BME280;28421;51.030;4.006;2023-10-08T11:12:18;102504.84;;;21.98;69.15
29417;BME280;28421;51.030;4.006;2023-10-08T11:14:57;102501.91;;;22.06;68.66
29417;BME280;28421;51.030;4.006;2023-10-08T11:17:25;102501.44;;;21.90;66.98
29417;BME280;28421;51.030;4.006;2023-10-08T11:19:52;102495.34;;;21.94;68.17
29417;BME280;28421;51.030;4.006;2023-10-08T11:22:18;102507.78;;;22.10;68.53
29417;BME280;28421;51.030;4.006;2023-10-08T11:24:45;102509.25;;;22.06;67.80
29417;BME280;28421;51.030;4.006;2023-10-08T11:27:21;102498.28;;;22.06;68.22
29417;BME280;28421;51.030;4.006;2023-10-08T11:30:00;102484.19;;;22.09;68.36
29417;BME280;28421;51.030;4.006;2023-10-08T11:32:27;102499.63;;;22.23;67.87
29417;BME280;28421;51.030;4.006;2023-10-08T11:34:56;102489.22;;;21.92;66.11
29417;BME280;28421;51.030;4.006;2023-10-08T11:37:32;102483.84;;;22.19;67.17
29417;BME280;28421;51.030;4.006;2023-10-08T11:40:02;102492.44;;;22.22;67.43
29417;BME280;28421;51.030;4.006;2023-10-08T11:42:35;102477.06;;;22.21;67.55
29417;BME280;28421;51.030;4.006;2023-10-08T11:45:00;102465.28;;;22.27;67.42
29417;BME280;28421;51.030;4.006;2023-10-08T11:47:47;102484.25;;;22.49;67.87
29417;BME280;28421;51.030;4.006;2023-10-08T11:50:25;102484.03;;;22.44;65.75
29417;BME280;28421;51.030;4.006;2023-10-08T11:53:01;102483.41;;;22.62;65.97
29417;BME280;28421;51.030;4.006;2023-10-08T11:55:29;102469.88;;;22.60;65.01
29417;BME280;28421;51.030;4.006;2023-10-08T11:57:59;102476.63;;;22.64;63.46
29417;BME280;28421;51.030;4.006;2023-10-08T12:00:26;102477.03;;;22.81;65.65
29417;BME280;28421;51.030;4.006;2023-10-08T12:02:52;102462.22;;;22.89;64.48
29417;BME280;28421;51.030;4.006;2023-10-08T12:05:20;102471.75;;;22.93;63.63
29417;BME280;28421;51.030;4.006;2023-10-08T12:07:50;102446.69;;;22.56;64.59
29417;BME280;28421;51.030;4.006;2023-10-08T12:10:17;102457.66;;;22.69;63.56
29417;BME280;28421;51.030;4.006;2023-10-08T12:12:51;102455.50;;;22.84;63.84
29417;BME280;28421;51.030;4.006;2023-10-08T12:15:20;102459.72;;;22.80;63.97
29417;BME280;28421;51.030;4.006;2023-10-08T12:17:49;102443.28;;;22.94;63.73
29417;BME280;28421;51.030;4.006;2023-10-08T12:20:35;102461.78;;;23.12;63.75
29417;BME280;28421;51.030;4.006;2023-10-08T12:23:03;102465.81;;;22.89;62.37
29417;BME280;28421;51.030;4.006;2023-10-08T12:25:30;102452.97;;;22.76;61.07
29417;BME280;28421;51.030;4.006;2023-10-08T12:28:01;102455.47;;;23.04;62.86
29417;BME280;28421;51.030;4.006;2023-10-08T12:30:32;102440.03;;;23.17;62.54
29417;BME280;28421;51.030;4.006;2023-10-08T12:33:07;102432.78;;;23.29;60.29
29417;BME280;28421;51.030;4.006;2023-10-08T12:35:35;102432.63;;;23.62;60.24
29417;BME280;28421;51.030;4.006;2023-10-08T12:38:02;102418.56;;;23.45;60.35
29417;BME280;28421;51.030;4.006;2023-10-08T12:40:27;102392.31;;;23.56;60.55
29417;BME280;28421;51.030;4.006;2023-10-08T12:43:08;102431.63;;;23.88;59.71
29417;BME280;28421;51.030;4.006;2023-10-08T12:45:33;102387.56;;;23.76;59.37
29417;BME280;28421;51.030;4.006;2023-10-08T12:47:59;102428.28;;;24.11;59.62
29417;BME280;28421;51.030;4.006;2023-10-08T12:50:24;102410.00;;;23.98;59.17
29417;BME280;28421;51.030;4.006;2023-10-08T12:53:10;102427.50;;;24.04;58.53
29417;BME280;28421;51.030;4.006;2023-10-08T12:55:39;102390.94;;;24.03;58.83
29417;BME280;28421;51.030;4.006;2023-10-08T12:58:06;102402.03;;;24.15;58.22
29417;BME280;28421;51.030;4.006;2023-10-08T13:00:38;102417.06;;;24.38;57.81
29417;BME280;28421;51.030;4.006;2023-10-08T13:03:04;102403.66;;;24.23;53.72
29417;BME280;28421;51.030;4.006;2023-10-08T13:05:43;102417.69;;;23.90;54.46
29417;BME280;28421;51.030;4.006;2023-10-08T13:08:12;102405.31;;;23.74;55.73
29417;BME280;28421;51.030;4.006;2023-10-08T13:10:41;102418.34;;;23.85;56.39
29417;BME280;28421;51.030;4.006;2023-10-08T13:13:12;102405.81;;;23.57;55.91
29417;BME280;28421;51.030;4.006;2023-10-08T13:15:38;102420.28;;;23.40;57.17
29417;BME280;28421;51.030;4.006;2023-10-08T13:18:05;102419.06;;;23.36;58.20
29417;BME280;28421;51.030;4.006;2023-10-08T13:20:30;102401.84;;;23.15;57.97